Monday, August 20, 2018, 11:50 PM GMT
Back to Local

CYSC, Sherbrooke, Que.

Location: , , Canada Lat: 45.4
Local Time: 11:50 PM GMT (23:50 GMT) Lon: -71.883
Time Zone: GMT Elev: 557 ft

Show me the last for .
Show Decoded

2018-08-20 23:00 METAR CYSC 202300Z AUTO 00000KT 9SM FEW250 22/18 A3012 RMK SLP203 DENSITY ALT
                 1500FT =
2018-08-20 22:00 METAR CYSC 202200Z AUTO 00000KT 9SM FEW060 SCT240 25/13 A3012 RMK SLP202 DENSITY
                 ALT 1900FT =
2018-08-20 21:00 METAR CYSC 202100Z AUTO 03003KT 340V080 9SM BKN060 BKN250 26/15 A3013 RMK SLP204
                 DENSITY ALT 1900FT =
2018-08-20 20:00 METAR CYSC 202000Z AUTO 00000KT 9SM OVC060 25/13 A3014 RMK SLP207 DENSITY ALT
                 1800FT =
2018-08-20 19:00 METAR CYSC 201900Z AUTO VRB02KT 8SM FEW060 SCT240 24/15 A3014 RMK SLP210 DENSITY
                 ALT 1700FT =
2018-08-20 18:00 METAR CYSC 201800Z AUTO 28003KT 210V340 9SM SCT240 24/14 A3016 RMK SLP215
                 DENSITY ALT 1700FT =
2018-08-20 17:00 METAR CYSC 201700Z AUTO 02003KT 360V130 9SM BKN055 BKN250 24/16 A3017 RMK SLP219
                 DENSITY ALT 1700FT =
2018-08-20 16:00 METAR CYSC 201600Z AUTO VRB03KT 9SM SCT240 22/15 A3019 RMK SLP224 DENSITY ALT
                 1500FT =
2018-08-20 15:00 METAR CYSC 201500Z AUTO VRB05KT 9SM FEW250 23/16 A3020 RMK SLP229 DENSITY ALT
                 1500FT =
2018-08-20 14:00 METAR CYSC 201400Z AUTO 19004KT 160V270 9SM FEW240 21/15 A3021 RMK SLP230
                 DENSITY ALT 1300FT =
2018-08-20 13:00 METAR CYSC 201300Z AUTO VRB02KT 9SM FEW250 19/14 A3021 RMK SLP232 DENSITY ALT
                 1000FT =
2018-08-20 12:00 METAR CYSC 201200Z AUTO 06005KT 9SM FEW250 16/14 A3021 RMK SLP231 =
2018-08-20 11:00 METAR CYSC 201100Z AUTO 09004KT 9SM FEW250 13/12 A3021 RMK SLP231 =
2018-08-20 10:00 METAR CYSC 201000Z AUTO 05002KT 9SM SCT065 12/12 A3019 RMK SLP227 =
2018-08-20 09:00 METAR CYSC 200900Z AUTO 08004KT 9SM OVC060 13/12 A3018 RMK SLP222 =
2018-08-20 08:00 METAR CYSC 200800Z AUTO 09004KT 9SM FEW250 12/12 A3017 RMK SLP218 =
2018-08-20 07:00 METAR CYSC 200700Z AUTO 11004KT 9SM CLR 12/11 A3016 RMK SLP216 =
2018-08-20 06:00 METAR CYSC 200600Z AUTO 12002KT 9SM CLR 15/13 A3015 RMK SLP213 =
2018-08-20 05:00 METAR CYSC 200500Z AUTO 06004KT 9SM CLR 14/13 A3014 RMK SLP208 =
2018-08-20 04:00 METAR CYSC 200400Z AUTO 07005KT 9SM CLR 15/14 A3014 RMK SLP207 =
2018-08-20 03:00 METAR CYSC 200300Z AUTO 09007KT 9SM CLR 17/14 A3014 RMK SLP207 DENSITY ALT 900FT
                 =
2018-08-20 02:00 METAR CYSC 200200Z AUTO 10007KT 9SM CLR 18/15 A3013 RMK SLP204 DENSITY ALT
                 1100FT =
2018-08-20 01:00 METAR CYSC 200100Z AUTO 10005KT 9SM CLR 18/14 A3011 RMK SLP197 DENSITY ALT
                 1100FT =
2018-08-20 00:00 METAR CYSC 200000Z AUTO 03003KT 9SM FEW065 20/14 A3009 RMK SLP193 DENSITY ALT
                 1300FT =

Support USWX by starting your Amazon purchase here.